createdAt,value
2023-07-16T00:00:28.268Z,753.00
2023-07-16T00:01:28.249Z,758.00
2023-07-16T00:02:28.194Z,774.00
2023-07-16T00:03:28.207Z,772.00
2023-07-16T00:04:28.328Z,764.00
2023-07-16T00:05:28.226Z,766.00
2023-07-16T00:06:28.190Z,754.00
2023-07-16T00:07:28.207Z,765.00
2023-07-16T00:08:28.219Z,757.00
2023-07-16T00:09:28.165Z,774.00
2023-07-16T00:10:28.181Z,774.00
2023-07-16T00:11:28.142Z,780.00
2023-07-16T00:12:28.129Z,793.00
2023-07-16T00:13:28.146Z,800.00
2023-07-16T00:14:28.128Z,788.00
2023-07-16T00:15:28.129Z,812.00
2023-07-16T00:16:28.132Z,812.00
2023-07-16T00:17:28.201Z,810.00
2023-07-16T00:18:28.233Z,816.00
2023-07-16T00:19:28.255Z,805.00
2023-07-16T00:20:28.324Z,812.00
2023-07-16T00:21:28.304Z,813.00
2023-07-16T00:22:28.436Z,822.00
2023-07-16T00:23:28.417Z,836.00
2023-07-16T00:24:28.437Z,840.00
2023-07-16T00:25:28.544Z,818.00
2023-07-16T00:26:28.601Z,843.00
2023-07-16T00:27:28.603Z,839.00
2023-07-16T00:28:28.675Z,833.00
2023-07-16T00:29:28.726Z,849.00
2023-07-16T00:30:28.829Z,836.00
2023-07-16T00:31:28.840Z,830.00
2023-07-16T00:32:28.925Z,840.00
2023-07-16T00:33:28.942Z,838.00
2023-07-16T00:34:28.922Z,835.00
2023-07-16T00:35:28.986Z,829.00
2023-07-16T00:36:29.035Z,835.00
2023-07-16T00:37:29.086Z,830.00
2023-07-16T00:38:29.059Z,840.00
2023-07-16T00:39:29.147Z,853.00
2023-07-16T00:40:29.171Z,866.00
2023-07-16T00:41:29.224Z,878.00
2023-07-16T00:42:29.295Z,882.00
2023-07-16T00:43:29.298Z,870.00
2023-07-16T00:44:29.331Z,882.00
2023-07-16T00:45:29.392Z,909.00
2023-07-16T00:46:29.450Z,914.00
2023-07-16T00:47:29.444Z,917.00
2023-07-16T00:48:29.462Z,928.00
2023-07-16T00:49:29.479Z,928.00
2023-07-16T00:50:29.528Z,944.00
2023-07-16T00:51:29.551Z,949.00
2023-07-16T00:52:29.557Z,947.00
2023-07-16T00:53:29.548Z,942.00
2023-07-16T00:54:29.576Z,943.00
2023-07-16T00:55:29.577Z,957.00
2023-07-16T00:56:29.630Z,964.00
2023-07-16T00:57:29.598Z,955.00
2023-07-16T00:58:29.632Z,953.00
2023-07-16T00:59:29.640Z,956.00
2023-07-16T01:00:29.675Z,952.00
2023-07-16T01:01:29.746Z,964.00
2023-07-16T01:02:29.763Z,971.00
2023-07-16T01:03:29.719Z,967.00
2023-07-16T01:04:29.750Z,965.00
2023-07-16T01:05:29.745Z,958.00
2023-07-16T01:06:29.758Z,960.00
2023-07-16T01:07:29.744Z,962.00
2023-07-16T01:08:29.751Z,979.00
2023-07-16T01:09:29.754Z,987.00
2023-07-16T01:10:29.779Z,963.00
2023-07-16T01:11:29.788Z,954.00
2023-07-16T01:12:29.729Z,972.00
2023-07-16T01:13:29.750Z,956.00
2023-07-16T01:14:29.773Z,959.00
2023-07-16T01:15:29.815Z,946.00
2023-07-16T01:16:29.844Z,961.00
2023-07-16T01:17:29.754Z,951.00
2023-07-16T01:18:29.770Z,956.00
2023-07-16T01:19:29.767Z,946.00
2023-07-16T01:20:29.887Z,922.00
2023-07-16T01:21:29.823Z,913.00
2023-07-16T01:22:29.828Z,935.00
2023-07-16T01:23:29.859Z,924.00
2023-07-16T01:24:29.866Z,907.00
2023-07-16T01:25:29.814Z,928.00
2023-07-16T01:26:29.814Z,911.00
2023-07-16T01:27:29.835Z,892.00
2023-07-16T01:28:29.850Z,899.00
2023-07-16T01:29:29.845Z,890.00
2023-07-16T01:30:29.829Z,891.00
2023-07-16T01:31:29.836Z,896.00
2023-07-16T01:32:29.852Z,888.00
2023-07-16T01:33:29.824Z,885.00
2023-07-16T01:34:29.797Z,890.00
2023-07-16T01:35:29.753Z,891.00
2023-07-16T01:36:29.844Z,855.00
2023-07-16T01:37:29.795Z,879.00
2023-07-16T01:38:29.802Z,867.00
2023-07-16T01:39:29.816Z,874.00
2023-07-16T01:40:29.820Z,860.00
2023-07-16T01:41:29.775Z,848.00
2023-07-16T01:42:29.778Z,869.00
2023-07-16T01:43:29.803Z,860.00
2023-07-16T01:44:29.816Z,849.00
2023-07-16T01:45:29.811Z,848.00
2023-07-16T01:46:29.889Z,848.00
2023-07-16T01:47:29.883Z,851.00
2023-07-16T01:48:29.834Z,855.00
2023-07-16T01:49:29.855Z,856.00
2023-07-16T01:50:29.859Z,859.00
2023-07-16T01:51:29.815Z,868.00
2023-07-16T01:52:29.912Z,846.00
2023-07-16T01:53:29.846Z,853.00
2023-07-16T01:54:29.879Z,849.00
2023-07-16T01:55:29.898Z,851.00
2023-07-16T01:56:29.937Z,861.00
2023-07-16T01:57:29.908Z,842.00
2023-07-16T01:58:29.911Z,847.00
2023-07-16T01:59:29.896Z,843.00
2023-07-16T02:00:29.912Z,846.00
2023-07-16T02:01:29.981Z,869.00
2023-07-16T02:02:29.995Z,855.00
2023-07-16T02:03:30.027Z,858.00
2023-07-16T02:04:29.952Z,874.00
2023-07-16T02:05:29.916Z,878.00
2023-07-16T02:06:29.947Z,871.00
2023-07-16T02:07:29.908Z,854.00
2023-07-16T02:08:29.910Z,868.00
2023-07-16T02:09:29.927Z,869.00
2023-07-16T02:10:29.934Z,847.00
2023-07-16T02:11:29.931Z,844.00
2023-07-16T02:12:29.931Z,852.00
2023-07-16T02:13:29.977Z,848.00
2023-07-16T02:14:29.960Z,854.00
2023-07-16T02:15:29.961Z,848.00
2023-07-16T02:16:29.994Z,845.00
2023-07-16T02:17:30.001Z,846.00
2023-07-16T02:18:29.975Z,847.00
2023-07-16T02:19:29.998Z,857.00
2023-07-16T02:20:29.981Z,848.00
2023-07-16T02:21:29.995Z,848.00
2023-07-16T02:22:30.036Z,854.00
2023-07-16T02:23:30.006Z,850.00
2023-07-16T02:24:30.029Z,850.00
2023-07-16T02:25:30.058Z,836.00
2023-07-16T02:26:30.033Z,846.00
2023-07-16T02:27:30.005Z,859.00
2023-07-16T02:28:30.046Z,857.00
2023-07-16T02:29:30.025Z,845.00
2023-07-16T02:30:30.027Z,848.00
2023-07-16T02:31:30.054Z,851.00
2023-07-16T02:32:30.066Z,849.00
2023-07-16T02:33:30.077Z,843.00
2023-07-16T02:34:30.061Z,849.00
2023-07-16T02:35:30.067Z,841.00
2023-07-16T02:36:30.076Z,847.00
2023-07-16T02:37:30.075Z,861.00
2023-07-16T02:38:30.085Z,864.00
2023-07-16T02:39:30.098Z,871.00
2023-07-16T02:40:30.106Z,866.00
2023-07-16T02:41:30.091Z,861.00
2023-07-16T02:42:30.136Z,846.00
2023-07-16T02:43:30.124Z,851.00
2023-07-16T02:44:30.141Z,852.00
2023-07-16T02:45:30.127Z,848.00
2023-07-16T02:46:30.214Z,862.00
2023-07-16T02:47:30.156Z,861.00
2023-07-16T02:48:30.172Z,860.00
2023-07-16T02:49:30.234Z,870.00
2023-07-16T02:50:30.164Z,871.00
2023-07-16T02:51:30.208Z,885.00
2023-07-16T02:52:30.173Z,880.00
2023-07-16T02:53:30.212Z,874.00
2023-07-16T02:54:30.221Z,865.00
2023-07-16T02:55:30.270Z,856.00
2023-07-16T02:56:30.229Z,870.00
2023-07-16T02:57:30.237Z,878.00
2023-07-16T02:58:30.265Z,888.00
2023-07-16T02:59:30.268Z,859.00
2023-07-16T03:00:30.273Z,864.00
2023-07-16T03:01:30.293Z,851.00
2023-07-16T03:02:30.327Z,851.00
2023-07-16T03:03:35.029Z,858.00
2023-07-16T03:04:31.318Z,859.00
2023-07-16T03:05:30.267Z,861.00
2023-07-16T03:06:30.288Z,862.00
2023-07-16T03:07:30.262Z,864.00
2023-07-16T03:08:30.278Z,869.00
2023-07-16T03:09:30.255Z,866.00
2023-07-16T03:10:30.233Z,873.00
2023-07-16T03:11:30.233Z,875.00
2023-07-16T03:12:30.253Z,895.00
2023-07-16T03:13:30.233Z,900.00
2023-07-16T03:14:30.264Z,896.00
2023-07-16T03:15:30.202Z,894.00
2023-07-16T03:16:30.258Z,900.00
2023-07-16T03:17:30.206Z,916.00
2023-07-16T03:18:30.195Z,905.00
2023-07-16T03:19:30.185Z,915.00
2023-07-16T03:20:30.205Z,916.00
2023-07-16T03:21:30.187Z,919.00
2023-07-16T03:22:30.218Z,917.00
2023-07-16T03:23:30.182Z,919.00
2023-07-16T03:24:30.178Z,923.00
2023-07-16T03:25:30.173Z,927.00
2023-07-16T03:26:30.135Z,926.00
2023-07-16T03:27:30.168Z,919.00
2023-07-16T03:28:30.174Z,928.00
2023-07-16T03:29:30.117Z,930.00
2023-07-16T03:30:30.094Z,952.00
2023-07-16T03:31:30.158Z,940.00
2023-07-16T03:32:41.933Z,930.00
2023-07-16T03:33:31.162Z,931.00
2023-07-16T03:34:30.096Z,932.00
2023-07-16T03:35:30.093Z,938.00
2023-07-16T03:36:30.105Z,936.00
2023-07-16T03:37:30.075Z,926.00
2023-07-16T03:38:30.077Z,911.00
2023-07-16T03:39:30.160Z,907.00
2023-07-16T03:40:30.051Z,907.00
2023-07-16T03:41:30.076Z,912.00
2023-07-16T03:42:30.033Z,916.00
2023-07-16T03:43:30.056Z,908.00
2023-07-16T03:44:30.053Z,897.00
2023-07-16T03:45:30.068Z,880.00
2023-07-16T03:46:30.007Z,895.00
2023-07-16T03:47:30.126Z,903.00
2023-07-16T03:48:30.037Z,886.00
2023-07-16T03:49:30.008Z,888.00
2023-07-16T03:50:29.984Z,881.00
2023-07-16T03:51:30.009Z,883.00
2023-07-16T03:52:30.009Z,883.00
2023-07-16T03:53:29.983Z,886.00
2023-07-16T03:54:29.952Z,888.00
2023-07-16T03:55:29.985Z,891.00
2023-07-16T03:56:29.977Z,885.00
2023-07-16T03:57:29.955Z,898.00
2023-07-16T03:58:29.949Z,881.00
2023-07-16T03:59:29.904Z,883.00
2023-07-16T04:00:29.932Z,874.00
2023-07-16T04:01:29.939Z,879.00
2023-07-16T04:02:29.974Z,870.00
2023-07-16T04:03:30.016Z,861.00
2023-07-16T04:04:29.892Z,853.00
2023-07-16T04:05:29.894Z,832.00
2023-07-16T04:06:29.861Z,810.00
2023-07-16T04:07:29.907Z,805.00
2023-07-16T04:08:29.889Z,758.00
2023-07-16T04:09:29.913Z,738.00
2023-07-16T04:10:29.993Z,729.00
2023-07-16T04:11:30.117Z,682.00
2023-07-16T04:12:30.102Z,690.00
2023-07-16T04:13:30.150Z,668.00
2023-07-16T04:14:30.194Z,647.00
2023-07-16T04:15:30.222Z,648.00
2023-07-16T04:16:30.299Z,647.00
2023-07-16T04:17:30.282Z,638.00
2023-07-16T04:18:30.351Z,630.00
2023-07-16T04:19:30.327Z,623.00
2023-07-16T04:20:30.341Z,619.00
2023-07-16T04:21:30.369Z,625.00
2023-07-16T04:22:30.369Z,615.00
2023-07-16T04:23:30.355Z,606.00
2023-07-16T04:24:30.350Z,604.00
2023-07-16T04:25:30.342Z,597.00
2023-07-16T04:26:30.420Z,599.00
2023-07-16T04:27:30.391Z,586.00
2023-07-16T04:28:30.378Z,590.00
2023-07-16T04:29:30.412Z,582.00
2023-07-16T04:30:30.483Z,583.00
2023-07-16T04:31:30.471Z,574.00
2023-07-16T04:32:30.523Z,573.00
2023-07-16T04:33:30.552Z,576.00
2023-07-16T04:34:30.584Z,575.00
2023-07-16T04:35:30.609Z,577.00
2023-07-16T04:36:30.646Z,579.00
2023-07-16T04:37:30.728Z,576.00
2023-07-16T04:38:30.723Z,575.00
2023-07-16T04:39:30.765Z,580.00
2023-07-16T04:40:30.783Z,579.00
2023-07-16T04:41:30.837Z,581.00
2023-07-16T04:42:30.841Z,574.00
2023-07-16T04:43:30.835Z,578.00
2023-07-16T04:44:30.814Z,577.00
2023-07-16T04:45:30.811Z,573.00
2023-07-16T04:46:30.900Z,570.00
2023-07-16T04:47:30.881Z,574.00
2023-07-16T04:48:30.828Z,577.00
2023-07-16T04:49:30.849Z,573.00
2023-07-16T04:50:30.881Z,568.00
2023-07-16T04:51:30.915Z,564.00
2023-07-16T04:52:30.895Z,561.00
2023-07-16T04:53:30.912Z,564.00
2023-07-16T04:54:30.916Z,566.00
2023-07-16T04:55:30.931Z,553.00
2023-07-16T04:56:30.959Z,556.00
2023-07-16T04:57:30.955Z,548.00
2023-07-16T04:58:31.016Z,558.00
2023-07-16T04:59:31.092Z,552.00
2023-07-16T05:00:31.130Z,561.00
2023-07-16T05:01:31.223Z,553.00
2023-07-16T05:02:31.310Z,557.00
2023-07-16T05:03:31.330Z,555.00
2023-07-16T05:04:31.432Z,555.00
2023-07-16T05:05:31.387Z,553.00
2023-07-16T05:06:31.377Z,554.00
2023-07-16T05:07:31.383Z,560.00
2023-07-16T05:08:31.389Z,558.00
2023-07-16T05:09:31.403Z,549.00
2023-07-16T05:10:31.408Z,553.00
2023-07-16T05:11:31.430Z,559.00
2023-07-16T05:12:31.418Z,546.00
2023-07-16T05:13:31.448Z,545.00
2023-07-16T05:14:31.457Z,552.00
2023-07-16T05:15:31.403Z,573.00
2023-07-16T05:16:31.446Z,545.00
2023-07-16T05:17:31.656Z,548.00
2023-07-16T05:18:31.453Z,545.00
2023-07-16T05:19:31.423Z,553.00
2023-07-16T05:20:31.496Z,536.00
2023-07-16T05:21:31.451Z,553.00
2023-07-16T05:22:31.480Z,539.00
2023-07-16T05:23:31.454Z,556.00
2023-07-16T05:24:31.477Z,548.00
2023-07-16T05:25:32.751Z,554.00
2023-07-16T05:26:31.469Z,550.00
2023-07-16T05:27:31.466Z,548.00
2023-07-16T05:28:31.479Z,548.00
2023-07-16T05:29:31.453Z,540.00
2023-07-16T05:30:31.527Z,538.00
2023-07-16T05:31:31.536Z,546.00
2023-07-16T05:32:31.557Z,546.00
2023-07-16T05:33:31.542Z,542.00
2023-07-16T05:34:31.600Z,545.00
2023-07-16T05:35:31.555Z,542.00
2023-07-16T05:36:31.603Z,540.00
2023-07-16T05:37:31.652Z,552.00
2023-07-16T05:38:31.688Z,555.00
2023-07-16T05:39:31.701Z,551.00
2023-07-16T05:40:31.753Z,564.00
2023-07-16T05:41:31.693Z,571.00
2023-07-16T05:42:31.671Z,573.00
2023-07-16T05:43:31.682Z,570.00
2023-07-16T05:44:31.700Z,581.00
2023-07-16T05:45:31.698Z,580.00
2023-07-16T05:46:31.777Z,589.00
2023-07-16T05:47:31.750Z,581.00
2023-07-16T05:48:31.737Z,581.00
2023-07-16T05:49:31.721Z,581.00
2023-07-16T05:50:31.736Z,582.00
2023-07-16T05:51:31.718Z,577.00
2023-07-16T05:52:31.708Z,591.00
2023-07-16T05:53:31.715Z,593.00
2023-07-16T05:54:31.754Z,580.00
2023-07-16T05:55:31.754Z,579.00
2023-07-16T05:56:31.736Z,585.00
2023-07-16T05:57:31.781Z,587.00
2023-07-16T05:58:31.768Z,584.00
2023-07-16T05:59:31.748Z,586.00
2023-07-16T06:00:31.760Z,592.00
2023-07-16T06:01:31.791Z,582.00
2023-07-16T06:02:31.785Z,596.00
2023-07-16T06:03:31.804Z,584.00
2023-07-16T06:04:31.729Z,598.00
2023-07-16T06:05:31.697Z,594.00
2023-07-16T06:06:31.745Z,589.00
2023-07-16T06:07:31.728Z,594.00
2023-07-16T06:08:31.748Z,590.00
2023-07-16T06:09:31.735Z,600.00
2023-07-16T06:10:31.742Z,593.00
2023-07-16T06:11:31.789Z,594.00
2023-07-16T06:12:31.808Z,588.00
2023-07-16T06:13:31.762Z,600.00
2023-07-16T06:14:31.814Z,602.00
2023-07-16T06:15:31.830Z,613.00
2023-07-16T06:16:31.878Z,597.00
2023-07-16T06:17:31.816Z,599.00
2023-07-16T06:18:31.816Z,600.00
2023-07-16T06:19:31.797Z,606.00
2023-07-16T06:20:31.807Z,592.00
2023-07-16T06:21:31.826Z,601.00
2023-07-16T06:22:31.849Z,611.00
2023-07-16T06:23:31.833Z,590.00
2023-07-16T06:24:31.846Z,604.00
2023-07-16T06:25:31.862Z,606.00
2023-07-16T06:26:31.856Z,610.00
2023-07-16T06:27:31.849Z,602.00
2023-07-16T06:28:31.877Z,623.00
2023-07-16T06:29:31.876Z,619.00
2023-07-16T06:30:31.889Z,617.00
2023-07-16T06:31:31.873Z,621.00
2023-07-16T06:32:31.870Z,613.00
2023-07-16T06:33:31.898Z,612.00
2023-07-16T06:34:31.867Z,618.00
2023-07-16T06:35:31.866Z,615.00
2023-07-16T06:36:31.900Z,629.00
2023-07-16T06:37:31.899Z,620.00
2023-07-16T06:38:31.949Z,634.00
2023-07-16T06:39:31.937Z,635.00
2023-07-16T06:40:31.942Z,624.00
2023-07-16T06:41:31.953Z,628.00
2023-07-16T06:42:31.969Z,650.00
2023-07-16T06:43:31.966Z,634.00
2023-07-16T06:44:31.976Z,642.00
2023-07-16T06:45:34.473Z,637.00
2023-07-16T06:46:32.090Z,657.00
2023-07-16T06:47:32.025Z,638.00
2023-07-16T06:48:31.971Z,646.00
2023-07-16T06:49:31.966Z,651.00
2023-07-16T06:50:32.028Z,647.00
2023-07-16T06:51:31.963Z,657.00
2023-07-16T06:52:31.984Z,638.00
2023-07-16T06:53:31.958Z,652.00
2023-07-16T06:54:31.939Z,660.00
2023-07-16T06:55:31.897Z,641.00
2023-07-16T06:56:31.932Z,659.00
2023-07-16T06:57:31.929Z,649.00
2023-07-16T06:58:31.953Z,642.00
2023-07-16T06:59:31.912Z,648.00
2023-07-16T07:00:31.916Z,657.00
2023-07-16T07:01:31.916Z,657.00
2023-07-16T07:02:31.911Z,663.00
2023-07-16T07:03:31.981Z,655.00
2023-07-16T07:04:31.876Z,666.00
2023-07-16T07:05:31.884Z,656.00
2023-07-16T07:06:31.863Z,663.00
2023-07-16T07:07:31.873Z,651.00
2023-07-16T07:08:31.858Z,663.00
2023-07-16T07:09:31.858Z,682.00
2023-07-16T07:10:31.855Z,654.00
2023-07-16T07:11:31.839Z,659.00
2023-07-16T07:12:31.822Z,664.00
2023-07-16T07:13:31.804Z,655.00
2023-07-16T07:14:31.817Z,664.00
2023-07-16T07:15:31.787Z,645.00
2023-07-16T07:16:31.884Z,649.00
2023-07-16T07:17:31.816Z,653.00
2023-07-16T07:18:31.781Z,653.00
2023-07-16T07:19:31.750Z,649.00
2023-07-16T07:20:31.752Z,650.00
2023-07-16T07:21:31.765Z,646.00
2023-07-16T07:22:31.842Z,642.00
2023-07-16T07:23:31.726Z,644.00
2023-07-16T07:24:31.715Z,641.00
2023-07-16T07:25:31.727Z,640.00
2023-07-16T07:26:31.704Z,637.00
2023-07-16T07:27:31.704Z,639.00
2023-07-16T07:28:31.732Z,633.00
2023-07-16T07:29:31.696Z,632.00
2023-07-16T07:30:31.715Z,632.00
2023-07-16T07:31:31.730Z,628.00
2023-07-16T07:32:31.723Z,629.00
2023-07-16T07:33:31.707Z,627.00
2023-07-16T07:34:31.672Z,631.00
2023-07-16T07:35:31.650Z,635.00
2023-07-16T07:36:31.681Z,624.00
2023-07-16T07:37:31.643Z,628.00
2023-07-16T07:38:31.643Z,632.00
2023-07-16T07:39:31.609Z,623.00
2023-07-16T07:40:31.627Z,632.00
2023-07-16T07:41:31.600Z,628.00
2023-07-16T07:42:31.613Z,634.00
2023-07-16T07:43:31.606Z,629.00
2023-07-16T07:44:31.612Z,625.00
2023-07-16T07:45:31.577Z,630.00
2023-07-16T07:46:31.633Z,620.00
2023-07-16T07:47:31.606Z,626.00
2023-07-16T07:48:31.612Z,627.00
2023-07-16T07:49:31.579Z,630.00
2023-07-16T07:50:31.581Z,625.00
2023-07-16T07:51:31.544Z,619.00
2023-07-16T07:52:31.556Z,621.00
2023-07-16T07:53:31.529Z,619.00
2023-07-16T07:54:31.541Z,623.00
2023-07-16T07:55:31.611Z,621.00
2023-07-16T07:56:31.680Z,619.00
2023-07-16T07:57:31.681Z,619.00
2023-07-16T07:58:31.819Z,619.00
2023-07-16T07:59:31.805Z,616.00
2023-07-16T08:00:31.821Z,618.00
2023-07-16T08:01:31.921Z,613.00
2023-07-16T08:02:31.947Z,616.00
2023-07-16T08:03:32.056Z,617.00
2023-07-16T08:04:32.162Z,612.00
2023-07-16T08:05:32.037Z,619.00
2023-07-16T08:06:32.054Z,612.00
2023-07-16T08:07:32.108Z,614.00
2023-07-16T08:08:32.110Z,614.00
2023-07-16T08:09:32.162Z,616.00
2023-07-16T08:10:32.164Z,610.00
2023-07-16T08:11:32.205Z,615.00
2023-07-16T08:12:32.300Z,616.00
2023-07-16T08:13:32.290Z,621.00
2023-07-16T08:14:32.300Z,623.00
2023-07-16T08:15:32.315Z,621.00
2023-07-16T08:16:32.354Z,622.00
2023-07-16T08:17:32.440Z,627.00
2023-07-16T08:18:32.483Z,617.00
2023-07-16T08:19:32.388Z,624.00
2023-07-16T08:20:32.444Z,628.00
2023-07-16T08:21:32.418Z,628.00
2023-07-16T08:22:32.505Z,627.00
2023-07-16T08:23:32.523Z,626.00
2023-07-16T08:24:32.517Z,627.00
2023-07-16T08:25:32.597Z,630.00
2023-07-16T08:26:32.604Z,625.00
2023-07-16T08:27:32.606Z,632.00
2023-07-16T08:28:32.609Z,634.00
2023-07-16T08:29:32.670Z,635.00
2023-07-16T08:30:32.674Z,633.00
2023-07-16T08:31:32.714Z,635.00
2023-07-16T08:32:32.757Z,638.00
2023-07-16T08:33:32.700Z,634.00
2023-07-16T08:34:32.752Z,633.00
2023-07-16T08:35:32.759Z,635.00
2023-07-16T08:36:32.768Z,639.00
2023-07-16T08:37:32.781Z,635.00
2023-07-16T08:38:32.773Z,638.00
2023-07-16T08:39:32.807Z,637.00
2023-07-16T08:40:32.795Z,636.00
2023-07-16T08:41:32.811Z,637.00
2023-07-16T08:42:32.817Z,636.00
2023-07-16T08:43:32.814Z,639.00
2023-07-16T08:44:32.823Z,637.00
2023-07-16T08:45:32.824Z,637.00
2023-07-16T08:46:32.944Z,636.00
2023-07-16T08:47:32.926Z,639.00
2023-07-16T08:48:32.846Z,639.00
2023-07-16T08:49:32.880Z,635.00
2023-07-16T08:50:33.016Z,636.00
2023-07-16T08:51:32.887Z,642.00
2023-07-16T08:52:32.881Z,635.00
2023-07-16T08:53:32.888Z,637.00
2023-07-16T08:54:32.893Z,642.00
2023-07-16T08:55:32.845Z,635.00
2023-07-16T08:56:32.879Z,640.00
2023-07-16T08:57:32.933Z,642.00
2023-07-16T08:58:32.926Z,638.00
2023-07-16T08:59:32.931Z,640.00
2023-07-16T09:00:32.971Z,640.00
2023-07-16T09:01:33.016Z,630.00
2023-07-16T09:02:33.050Z,632.00
2023-07-16T09:03:32.964Z,642.00
2023-07-16T09:04:32.924Z,638.00
2023-07-16T09:06:33.051Z,640.00
2023-07-16T09:07:32.945Z,641.00
2023-07-16T09:08:32.934Z,643.00
2023-07-16T09:09:32.941Z,644.00
2023-07-16T09:10:32.895Z,641.00
2023-07-16T09:11:32.995Z,641.00
2023-07-16T09:12:32.914Z,645.00
2023-07-16T09:13:32.922Z,643.00
2023-07-16T09:14:32.902Z,645.00
2023-07-16T09:15:32.914Z,647.00
2023-07-16T09:16:32.888Z,645.00
2023-07-16T09:17:32.950Z,641.00
2023-07-16T09:18:32.922Z,641.00
2023-07-16T09:19:32.864Z,646.00
2023-07-16T09:20:32.891Z,642.00
2023-07-16T09:21:32.933Z,644.00
2023-07-16T09:22:32.857Z,650.00
2023-07-16T09:23:32.825Z,652.00
2023-07-16T09:24:32.831Z,647.00
2023-07-16T09:25:32.859Z,650.00
2023-07-16T09:26:32.816Z,648.00
2023-07-16T09:27:32.823Z,642.00
2023-07-16T09:28:32.819Z,645.00
2023-07-16T09:29:32.802Z,644.00
2023-07-16T09:30:32.796Z,642.00
2023-07-16T09:31:32.875Z,643.00
2023-07-16T09:32:32.890Z,649.00
2023-07-16T09:33:32.752Z,643.00
2023-07-16T09:34:32.755Z,640.00
2023-07-16T09:35:32.772Z,640.00
2023-07-16T09:36:32.732Z,642.00
2023-07-16T09:37:32.781Z,641.00
2023-07-16T09:38:32.705Z,645.00
2023-07-16T09:39:32.737Z,645.00
2023-07-16T09:40:32.731Z,646.00
2023-07-16T09:41:32.703Z,649.00
2023-07-16T09:42:32.725Z,643.00
2023-07-16T09:43:32.729Z,649.00
2023-07-16T09:44:32.705Z,644.00
2023-07-16T09:45:32.668Z,645.00
2023-07-16T09:46:32.717Z,643.00
2023-07-16T09:47:32.730Z,647.00
2023-07-16T09:48:32.704Z,650.00
2023-07-16T09:49:32.664Z,643.00
2023-07-16T09:50:32.665Z,644.00
2023-07-16T09:51:32.690Z,646.00
2023-07-16T09:52:32.684Z,643.00
2023-07-16T09:53:32.719Z,642.00
2023-07-16T09:54:32.728Z,638.00
2023-07-16T09:55:32.741Z,640.00
2023-07-16T09:56:32.770Z,638.00
2023-07-16T09:57:32.811Z,640.00
2023-07-16T09:58:32.816Z,639.00
2023-07-16T09:59:32.823Z,636.00
2023-07-16T10:00:32.875Z,636.00
2023-07-16T10:01:32.963Z,642.00
2023-07-16T10:02:33.186Z,634.00
2023-07-16T10:03:33.035Z,638.00
2023-07-16T10:04:33.152Z,636.00
2023-07-16T10:05:33.135Z,630.00
2023-07-16T10:06:33.200Z,633.00
2023-07-16T10:07:33.200Z,624.00
2023-07-16T10:08:33.199Z,623.00
2023-07-16T10:09:33.211Z,619.00
2023-07-16T10:10:33.210Z,614.00
2023-07-16T10:11:33.179Z,612.00
2023-07-16T10:12:33.222Z,608.00
2023-07-16T10:13:33.238Z,609.00
2023-07-16T10:14:33.243Z,608.00
2023-07-16T10:15:33.262Z,612.00
2023-07-16T10:16:33.338Z,605.00
2023-07-16T10:17:33.318Z,607.00
2023-07-16T10:18:33.709Z,602.00
2023-07-16T10:19:33.347Z,592.00
2023-07-16T10:20:33.382Z,593.00
2023-07-16T10:21:33.361Z,584.00
2023-07-16T10:22:33.380Z,579.00
2023-07-16T10:23:33.369Z,583.00
2023-07-16T10:24:33.341Z,576.00
2023-07-16T10:25:33.350Z,573.00
2023-07-16T10:26:33.355Z,570.00
2023-07-16T10:27:33.381Z,574.00
2023-07-16T10:28:33.377Z,574.00
2023-07-16T10:29:33.391Z,581.00
2023-07-16T10:30:33.369Z,578.00
2023-07-16T10:31:33.420Z,572.00
2023-07-16T10:32:33.423Z,566.00
2023-07-16T10:33:33.482Z,576.00
2023-07-16T10:34:33.440Z,565.00
2023-07-16T10:35:33.452Z,566.00
2023-07-16T10:36:33.496Z,580.00
2023-07-16T10:37:33.503Z,573.00
2023-07-16T10:38:33.578Z,571.00
2023-07-16T10:39:33.562Z,575.00
2023-07-16T10:40:33.566Z,570.00
2023-07-16T10:41:33.555Z,571.00
2023-07-16T10:42:33.575Z,575.00
2023-07-16T10:43:33.602Z,573.00
2023-07-16T10:44:33.574Z,565.00
2023-07-16T10:45:33.655Z,566.00
2023-07-16T10:46:33.833Z,569.00
2023-07-16T10:47:33.748Z,577.00
2023-07-16T10:48:33.723Z,570.00
2023-07-16T10:49:33.796Z,580.00
2023-07-16T10:50:33.740Z,572.00
2023-07-16T10:51:33.821Z,575.00
2023-07-16T10:52:33.820Z,576.00
2023-07-16T10:53:33.862Z,571.00
2023-07-16T10:54:34.133Z,570.00
2023-07-16T10:55:36.375Z,566.00
2023-07-16T10:56:33.885Z,578.00
2023-07-16T10:57:33.870Z,576.00
2023-07-16T10:58:33.871Z,581.00
2023-07-16T10:59:33.816Z,568.00
2023-07-16T11:00:33.828Z,573.00
2023-07-16T11:01:33.848Z,568.00
2023-07-16T11:02:33.914Z,566.00
2023-07-16T11:03:33.929Z,569.00
2023-07-16T11:04:33.784Z,570.00
2023-07-16T11:05:33.803Z,577.00
2023-07-16T11:06:33.777Z,569.00
2023-07-16T11:07:33.749Z,569.00
2023-07-16T11:08:33.762Z,572.00
2023-07-16T11:09:33.739Z,563.00
2023-07-16T11:10:33.730Z,562.00
2023-07-16T11:11:33.777Z,553.00
2023-07-16T11:12:33.751Z,555.00
2023-07-16T11:13:33.707Z,563.00
2023-07-16T11:14:33.752Z,555.00
2023-07-16T11:15:33.906Z,561.00
2023-07-16T11:16:33.906Z,561.00
2023-07-16T11:17:33.762Z,557.00
2023-07-16T11:18:33.723Z,554.00
2023-07-16T11:19:33.712Z,549.00
2023-07-16T11:20:33.695Z,546.00
2023-07-16T11:21:33.648Z,551.00
2023-07-16T11:22:33.720Z,548.00
2023-07-16T11:23:33.665Z,548.00
2023-07-16T11:24:33.662Z,546.00
2023-07-16T11:25:33.667Z,543.00
2023-07-16T11:26:33.657Z,536.00
2023-07-16T11:27:33.635Z,540.00
2023-07-16T11:28:33.652Z,545.00
2023-07-16T11:29:33.658Z,547.00
2023-07-16T11:30:33.614Z,546.00
2023-07-16T11:31:33.651Z,551.00
2023-07-16T11:32:33.707Z,553.00
2023-07-16T11:33:33.691Z,548.00
2023-07-16T11:34:33.586Z,549.00
2023-07-16T11:35:33.600Z,557.00
2023-07-16T11:36:33.593Z,558.00
2023-07-16T11:37:33.596Z,553.00
2023-07-16T11:38:33.539Z,558.00
2023-07-16T11:39:33.542Z,554.00
2023-07-16T11:40:33.569Z,552.00
2023-07-16T11:41:33.547Z,551.00
2023-07-16T11:42:33.542Z,551.00
2023-07-16T11:43:33.503Z,553.00
2023-07-16T11:44:33.562Z,556.00
2023-07-16T11:45:33.559Z,556.00
2023-07-16T11:46:33.541Z,560.00
2023-07-16T11:47:33.544Z,558.00
2023-07-16T11:48:33.522Z,555.00
2023-07-16T11:49:33.538Z,552.00
2023-07-16T11:50:33.545Z,551.00
2023-07-16T11:51:33.509Z,546.00
2023-07-16T11:52:33.506Z,552.00
2023-07-16T11:53:33.510Z,550.00
2023-07-16T11:54:33.465Z,550.00
2023-07-16T11:55:33.459Z,552.00
2023-07-16T11:56:33.486Z,552.00
2023-07-16T11:57:33.429Z,550.00
2023-07-16T11:58:33.466Z,555.00
2023-07-16T11:59:33.461Z,552.00
2023-07-16T12:00:33.511Z,549.00
2023-07-16T12:01:33.477Z,554.00
2023-07-16T12:02:33.491Z,543.00
2023-07-16T12:03:33.449Z,537.00
2023-07-16T12:04:33.436Z,538.00
2023-07-16T12:05:50.312Z,552.00
2023-07-16T12:06:34.417Z,552.00
2023-07-16T12:07:33.434Z,553.00
2023-07-16T12:08:33.427Z,551.00
2023-07-16T12:09:33.348Z,544.00
2023-07-16T12:10:33.380Z,554.00
2023-07-16T12:11:33.382Z,547.00
2023-07-16T12:12:33.407Z,546.00
2023-07-16T12:13:33.424Z,546.00
2023-07-16T12:14:33.350Z,546.00
2023-07-16T12:15:33.366Z,539.00
2023-07-16T12:16:35.038Z,544.00
2023-07-16T12:17:33.383Z,563.00
2023-07-16T12:18:33.327Z,557.00
2023-07-16T12:19:33.333Z,564.00
2023-07-16T12:20:33.337Z,565.00
2023-07-16T12:21:33.299Z,566.00
2023-07-16T12:22:33.365Z,555.00
2023-07-16T12:23:33.319Z,552.00
2023-07-16T12:24:33.270Z,546.00
2023-07-16T12:25:33.274Z,545.00
2023-07-16T12:26:33.279Z,549.00
2023-07-16T12:27:33.343Z,549.00
2023-07-16T12:28:33.247Z,553.00
2023-07-16T12:29:33.242Z,551.00